Time;durP1;ratioP1;P1;durP2;ratioP2;P2;SDS_P1;SDS_P2;PMS_P1;PMS_P2;Temp;Humidity;BMP_temperature;BMP_pressure;BME280_temperature;BME280_humidity;BME280_pressure;Samples;Min_cycle;Max_cycle;Signal;HPM_P1;HPM_P2
2024/04/19 00:00:05;;;;;;;1.42;1.33;;;4.40;99.90;;;;;;5397197;26;20461;-79
2024/04/19 00:02:38;;;;;;;0.50;0.50;;;4.40;99.90;;;;;;5404683;26;20031;-80
2024/04/19 00:05:06;;;;;;;1.83;1.05;;;4.30;99.90;;;;;;5403046;26;20181;-79
2024/04/19 00:07:32;;;;;;;0.65;0.65;;;4.40;99.90;;;;;;5383201;26;20036;-79
2024/04/19 00:10:00;;;;;;;2.97;1.50;;;4.40;99.90;;;;;;5380674;26;20051;-78
2024/04/19 00:12:26;;;;;;;0.68;0.50;;;4.40;99.90;;;;;;5416708;26;20039;-78
2024/04/19 00:14:52;;;;;;;1.42;1.33;;;4.50;99.90;;;;;;5381752;26;20036;-78
2024/04/19 00:17:18;;;;;;;1.45;0.98;;;4.50;99.90;;;;;;5403587;26;20041;-78
2024/04/19 00:19:44;;;;;;;0.20;0.20;;;4.40;99.90;;;;;;5401728;26;20036;-80
2024/04/19 00:22:10;;;;;;;0.38;0.38;;;4.40;99.90;;;;;;5401007;26;20023;-78
2024/04/19 00:24:36;;;;;;;0.50;0.45;;;4.40;99.90;;;;;;5408061;26;20016;-78
2024/04/19 00:27:03;;;;;;;0.95;0.95;;;4.40;99.90;;;;;;5409264;26;20035;-80
2024/04/19 00:29:44;;;;;;;1.25;1.15;;;4.40;99.90;;;;;;5393158;26;20047;-79
2024/04/19 00:32:11;;;;;;;1.02;0.95;;;4.40;99.90;;;;;;5413358;26;20028;-79
2024/04/19 00:34:37;;;;;;;1.23;1.20;;;4.30;99.90;;;;;;5395687;26;20040;-80
2024/04/19 00:37:03;;;;;;;1.27;0.85;;;4.40;99.90;;;;;;5399294;26;20028;-78
2024/04/19 00:39:29;;;;;;;1.55;1.20;;;4.30;99.90;;;;;;5398684;26;20035;-78
2024/04/19 00:41:56;;;;;;;1.98;1.17;;;4.30;99.90;;;;;;5383763;26;20036;-79
2024/04/19 00:44:23;;;;;;;1.15;1.08;;;4.30;99.90;;;;;;5387132;26;20036;-79
2024/04/19 00:46:49;;;;;;;1.42;0.57;;;4.30;99.90;;;;;;5390179;26;20036;-79
2024/04/19 00:49:30;;;;;;;1.08;1.02;;;4.30;99.90;;;;;;5377817;26;20400;-78
2024/04/19 00:51:57;;;;;;;0.73;0.73;;;4.30;99.90;;;;;;5402402;26;20040;-78
2024/04/19 00:54:24;;;;;;;1.30;1.20;;;4.30;99.90;;;;;;5381701;26;20031;-79
2024/04/19 00:56:50;;;;;;;0.43;0.43;;;4.30;99.90;;;;;;5375327;26;20036;-78
2024/04/19 00:59:17;;;;;;;0.65;0.63;;;4.30;99.90;;;;;;5393224;26;20033;-78
2024/04/19 01:01:43;;;;;;;2.92;1.20;;;4.30;99.90;;;;;;5375976;26;20494;-81
2024/04/19 01:04:09;;;;;;;1.00;1.00;;;4.40;99.90;;;;;;5372123;26;20036;-78
2024/04/19 01:06:35;;;;;;;1.73;1.33;;;4.40;99.90;;;;;;5407657;26;20035;-78
2024/04/19 01:09:04;;;;;;;1.02;0.95;;;4.40;99.90;;;;;;5387085;26;20052;-78
2024/04/19 01:11:31;;;;;;;0.75;0.75;;;4.40;99.90;;;;;;5358562;26;20485;-79
2024/04/19 01:13:57;;;;;;;1.75;1.65;;;4.40;99.90;;;;;;5401470;26;20040;-79
2024/04/19 01:16:24;;;;;;;0.63;0.63;;;4.50;99.90;;;;;;5397497;26;20143;-78
2024/04/19 01:18:53;;;;;;;0.82;0.73;;;4.50;99.90;;;;;;5380935;26;20036;-78
2024/04/19 01:21:21;;;;;;;0.60;0.60;;;4.50;99.90;;;;;;5352137;26;20032;-78
2024/04/19 01:23:53;;;;;;;0.17;0.17;;;4.50;99.90;;;;;;5387173;26;20036;-78
2024/04/19 01:26:19;;;;;;;0.75;0.75;;;4.50;99.90;;;;;;5365984;26;20032;-78
2024/04/19 01:28:45;;;;;;;1.67;1.58;;;4.50;99.90;;;;;;5398302;26;20036;-82
2024/04/19 01:31:11;;;;;;;1.10;1.02;;;4.50;99.90;;;;;;5386216;26;20477;-80
2024/04/19 01:33:38;;;;;;;0.20;0.20;;;4.60;99.90;;;;;;5382645;26;20048;-78
2024/04/19 01:36:04;;;;;;;1.48;1.38;;;4.60;99.90;;;;;;5387787;26;20048;-78
2024/04/19 01:38:46;;;;;;;0.65;0.65;;;4.60;99.90;;;;;;5402755;26;20381;-83
2024/04/19 01:41:12;;;;;;;1.40;1.13;;;4.60;99.90;;;;;;5381670;26;20602;-79
2024/04/19 01:43:38;;;;;;;1.17;1.13;;;4.50;99.90;;;;;;5410590;26;20031;-78
2024/04/19 01:46:04;;;;;;;0.45;0.45;;;4.60;99.90;;;;;;5396103;26;20540;-78
2024/04/19 01:48:30;;;;;;;1.33;1.05;;;4.60;99.90;;;;;;5396519;26;20032;-78
2024/04/19 01:50:56;;;;;;;0.20;0.20;;;4.60;99.90;;;;;;5368514;26;20035;-78
2024/04/19 01:53:23;;;;;;;0.20;0.20;;;4.60;99.90;;;;;;5400374;26;20035;-78
2024/04/19 01:55:49;;;;;;;0.50;0.50;;;4.60;99.90;;;;;;5376740;26;20039;-79
2024/04/19 01:58:35;;;;;;;0.65;0.63;;;4.60;99.90;;;;;;5407225;26;20031;-78
2024/04/19 02:01:01;;;;;;;0.47;0.47;;;4.70;99.90;;;;;;5403649;26;20036;-79
2024/04/19 02:03:27;;;;;;;1.38;1.27;;;4.60;99.90;;;;;;5364246;26;20043;-78
2024/04/19 02:06:03;;;;;;;0.90;0.85;;;4.70;99.90;;;;;;5403735;26;20040;-79
2024/04/19 02:08:29;;;;;;;1.05;0.95;;;4.70;99.90;;;;;;5380313;26;20055;-78
2024/04/19 02:11:00;;;;;;;0.52;0.52;;;4.70;99.90;;;;;;5377335;26;20417;-78
2024/04/19 02:13:26;;;;;;;1.95;1.85;;;4.70;99.90;;;;;;5400506;26;20039;-79
2024/04/19 02:15:52;;;;;;;1.02;1.02;;;4.70;99.90;;;;;;5398594;26;20040;-78
2024/04/19 02:18:18;;;;;;;1.60;1.50;;;4.70;99.90;;;;;;5374702;26;20394;-78
2024/04/19 02:20:45;;;;;;;0.40;0.40;;;4.70;99.90;;;;;;5337486;26;20388;-82
2024/04/19 02:23:11;;;;;;;3.20;0.95;;;4.80;99.90;;;;;;5368651;26;20075;-78
2024/04/19 02:25:37;;;;;;;0.88;0.88;;;4.80;99.90;;;;;;5357312;26;20044;-78
2024/04/19 02:31:00;;;;;;;0.30;0.30;;;4.80;99.90;;;;;;5388656;26;20032;-82
2024/04/19 02:33:27;;;;;;;0.50;0.50;;;4.80;99.90;;;;;;5385010;26;20040;-78
2024/04/19 02:35:53;;;;;;;1.20;0.57;;;4.80;99.90;;;;;;5380872;26;20043;-78
2024/04/19 02:38:19;;;;;;;0.60;0.60;;;4.80;99.90;;;;;;5391120;26;20055;-78
2024/04/19 02:40:45;;;;;;;0.17;0.17;;;4.70;99.90;;;;;;5392782;26;20048;-82
2024/04/19 02:43:12;;;;;;;0.10;0.10;;;4.80;99.90;;;;;;5402388;26;20040;-78
2024/04/19 02:46:03;;;;;;;0.65;0.60;;;4.80;58.50;;;;;;5409504;26;20043;-78
2024/04/19 02:48:29;;;;;;;;;;;4.80;9.50;;;;;;5399114;26;20500;-78
2024/04/19 02:50:56;;;;;;;0.65;0.55;;;4.80;1.00;;;;;;5388395;26;19933;-78
2024/04/19 02:53:22;;;;;;;0.45;0.45;;;4.80;1.00;;;;;;5395905;26;20058;-78
2024/04/19 02:55:50;;;;;;;0.75;0.75;;;4.80;1.00;;;;;;5400471;26;20031;-81
2024/04/19 02:58:17;;;;;;;0.35;0.35;;;4.80;1.00;;;;;;5403650;26;20044;-78
2024/04/19 03:00:43;;;;;;;0.45;0.45;;;4.80;99.90;;;;;;5381817;26;20036;-78
2024/04/19 03:03:10;;;;;;;0.50;0.50;;;4.80;99.90;;;;;;5356195;26;20056;-78
2024/04/19 03:05:36;;;;;;;0.20;0.20;;;4.80;99.90;;;;;;5393281;26;20039;-78
2024/04/19 03:08:03;;;;;;;0.35;0.35;;;4.80;99.90;;;;;;5401863;26;20035;-78
2024/04/19 03:10:30;;;;;;;0.50;0.50;;;4.80;99.90;;;;;;5384316;26;20040;-78
2024/04/19 03:12:56;;;;;;;0.50;0.43;;;4.90;99.90;;;;;;5379949;26;20059;-79
2024/04/19 03:15:22;;;;;;;0.45;0.45;;;4.80;99.90;;;;;;5395771;26;20032;-78
2024/04/19 03:17:48;;;;;;;14.32;1.25;;;4.80;99.90;;;;;;5371814;26;20031;-81
2024/04/19 03:20:14;;;;;;;0.20;0.20;;;4.80;99.90;;;;;;5380802;26;20039;-78
2024/04/19 03:22:41;;;;;;;0.85;0.40;;;4.80;99.90;;;;;;5382206;26;20055;-78
2024/04/19 03:25:07;;;;;;;0.10;0.10;;;4.80;99.90;;;;;;5393060;26;20048;-78
2024/04/19 03:27:34;;;;;;;2.25;0.77;;;4.80;99.90;;;;;;5387147;26;20536;-78
2024/04/19 03:30:00;;;;;;;0.43;0.30;;;4.80;99.90;;;;;;5380027;26;20044;-79
2024/04/19 03:32:26;;;;;;;0.30;0.30;;;4.90;99.90;;;;;;5398908;26;20381;-79
2024/04/19 03:34:53;;;;;;;0.40;0.40;;;4.90;99.90;;;;;;5407036;26;20039;-82
2024/04/19 03:37:19;;;;;;;0.17;0.17;;;4.90;99.90;;;;;;5380181;26;20382;-78
2024/04/19 03:39:45;;;;;;;0.90;0.90;;;4.90;99.90;;;;;;5390879;26;20040;-78
2024/04/19 03:42:12;;;;;;;0.45;0.32;;;5.00;97.40;;;;;;5390924;26;20054;-78
2024/04/19 03:47:23;;;;;;;0.10;0.10;;;5.10;38.00;;;;;;5397978;26;20035;-79
2024/04/19 03:49:49;;;;;;;0.25;0.25;;;5.10;13.00;;;;;;5385891;26;20040;-80
2024/04/19 03:52:16;;;;;;;1.35;1.25;;;5.20;1.70;;;;;;5353985;26;20036;-80
2024/04/19 03:54:42;;;;;;;0.88;0.70;;;5.40;1.00;;;;;;5389540;26;20051;-78
2024/04/19 03:57:08;;;;;;;0.10;0.10;;;5.40;1.00;;;;;;5399817;26;20035;-80
2024/04/19 03:59:34;;;;;;;1.00;0.85;;;5.50;1.00;;;;;;5376404;26;20043;-79
2024/04/19 04:02:15;;;;;;;1.15;1.15;;;5.70;99.90;;;;;;5404983;26;20036;-77
2024/04/19 04:04:54;;;;;;;0.85;0.68;;;6.00;99.90;;;;;;5386398;26;20039;-80
2024/04/19 04:07:20;;;;;;;0.40;0.40;;;6.20;99.90;;;;;;5364040;26;20035;-79
2024/04/19 04:09:46;;;;;;;1.55;0.98;;;6.30;99.90;;;;;;5381552;26;20039;-77
2024/04/19 04:12:12;;;;;;;11.48;1.58;;;6.60;24.70;;;;;;5375528;26;20048;-78
2024/04/19 04:14:39;;;;;;;1.13;0.77;;;6.70;1.00;;;;;;5382406;26;20039;-77
2024/04/19 04:17:05;;;;;;;1.20;1.10;;;6.70;1.00;;;;;;5346504;26;20036;-79
2024/04/19 04:19:31;;;;;;;2.72;0.70;;;6.70;1.00;;;;;;5396637;26;20035;-76
2024/04/19 04:21:57;;;;;;;0.30;0.30;;;6.70;36.40;;;;;;5376198;26;20039;-77
2024/04/19 04:24:24;;;;;;;0.30;0.30;;;6.60;45.10;;;;;;5374834;26;20048;-77
2024/04/19 04:26:50;;;;;;;0.40;0.40;;;6.60;47.50;;;;;;5370892;26;20036;-77
2024/04/19 04:29:16;;;;;;;0.40;0.40;;;6.60;28.30;;;;;;5391644;26;20051;-76
2024/04/19 04:31:42;;;;;;;0.93;0.93;;;6.60;27.90;;;;;;5391221;26;20039;-78
2024/04/19 04:34:08;;;;;;;1.30;1.00;;;6.70;24.70;;;;;;5397448;26;20405;-78
2024/04/19 04:36:34;;;;;;;0.30;0.30;;;6.60;92.40;;;;;;5400318;26;20489;-77
2024/04/19 04:39:01;;;;;;;1.00;0.80;;;6.60;72.80;;;;;;5402808;26;20032;-76
2024/04/19 04:41:27;;;;;;;2.60;1.55;;;6.70;1.00;;;;;;5383610;26;20024;-76
2024/04/19 04:43:53;;;;;;;0.65;0.65;;;6.80;1.00;;;;;;5390509;26;20045;-78
2024/04/19 04:46:19;;;;;;;0.40;0.40;;;6.80;1.00;;;;;;5380066;26;20047;-78
2024/04/19 04:48:45;;;;;;;0.95;0.65;;;6.70;23.30;;;;;;5382491;26;20048;-78
2024/04/19 04:51:11;;;;;;;0.85;0.85;;;6.60;76.60;;;;;;5394017;26;20043;-78
2024/04/19 04:53:38;;;;;;;0.35;0.35;;;6.60;29.90;;;;;;5393041;26;20040;-77
2024/04/19 04:56:04;;;;;;;1.17;1.10;;;6.60;1.00;;;;;;5361647;26;20055;-79
2024/04/19 04:58:30;;;;;;;0.63;0.63;;;6.60;1.00;;;;;;5382997;26;20039;-78
2024/04/19 05:00:56;;;;;;;1.05;1.05;;;6.60;53.60;;;;;;5347029;26;20043;-79
2024/04/19 05:03:23;;;;;;;0.50;0.50;;;6.60;66.70;;;;;;5380625;26;20039;-77
2024/04/19 05:05:49;;;;;;;0.88;0.85;;;6.50;54.10;;;;;;5392192;26;20048;-79
2024/04/19 05:08:15;;;;;;;0.82;0.82;;;6.60;87.70;;;;;;5409405;26;20396;-79
2024/04/19 05:10:41;;;;;;;1.65;0.63;;;6.50;57.50;;;;;;5413326;26;20043;-77
2024/04/19 05:13:07;;;;;;;0.47;0.47;;;6.60;49.40;;;;;;5396719;26;20476;-78
2024/04/19 05:15:33;;;;;;;0.32;0.32;;;6.50;94.50;;;;;;5399892;26;20039;-78
2024/04/19 05:18:00;;;;;;;0.68;0.68;;;6.50;55.60;;;;;;5352692;26;20485;-78
2024/04/19 05:20:26;;;;;;;2.28;1.95;;;6.60;31.40;;;;;;5413067;26;20047;-77
2024/04/19 05:22:52;;;;;;;0.47;0.47;;;6.60;18.10;;;;;;5415168;26;20108;-77
2024/04/19 05:25:19;;;;;;;0.90;0.90;;;6.50;90.90;;;;;;5400960;26;20052;-78
2024/04/19 05:27:45;;;;;;;1.13;0.70;;;6.50;87.90;;;;;;5362783;26;20016;-80
2024/04/19 05:30:11;;;;;;;0.25;0.25;;;6.50;53.30;;;;;;5388425;26;20036;-76
2024/04/19 05:32:37;;;;;;;1.13;1.08;;;6.40;55.80;;;;;;5397124;26;20012;-79
2024/04/19 05:35:04;;;;;;;0.50;0.50;;;6.50;76.00;;;;;;5382988;26;20027;-80
2024/04/19 05:37:30;;;;;;;0.82;0.45;;;6.50;99.90;;;;;;5417879;26;20036;-80
2024/04/19 05:39:56;;;;;;;1.10;1.00;;;6.50;99.90;;;;;;5387499;26;20040;-80
2024/04/19 05:42:23;;;;;;;0.10;0.10;;;6.40;99.90;;;;;;5403589;26;20048;-81
2024/04/19 05:44:49;;;;;;;0.45;0.45;;;6.40;99.90;;;;;;5382808;26;20513;-80
2024/04/19 05:47:15;;;;;;;1.77;1.02;;;6.40;95.10;;;;;;5363213;26;20035;-80
2024/04/19 05:49:43;;;;;;;0.70;0.50;;;6.40;99.90;;;;;;5362947;26;20043;-79
2024/04/19 05:52:09;;;;;;;0.65;0.65;;;6.40;99.90;;;;;;5373648;26;20036;-81
2024/04/19 05:54:35;;;;;;;0.77;0.60;;;6.40;99.90;;;;;;5367313;26;20047;-79
2024/04/19 05:57:01;;;;;;;0.35;0.35;;;6.40;99.90;;;;;;5392843;26;20039;-83
2024/04/19 05:59:27;;;;;;;0.55;0.55;;;6.40;99.90;;;;;;5366651;26;20043;-80
2024/04/19 06:01:54;;;;;;;0.77;0.77;;;6.40;99.90;;;;;;5394139;26;20037;-80
2024/04/19 06:04:34;;;;;;;0.50;0.50;;;6.40;99.90;;;;;;5371658;26;20610;-80
2024/04/19 06:07:01;;;;;;;0.50;0.50;;;6.40;99.90;;;;;;5408048;26;20039;-81
2024/04/19 06:09:27;;;;;;;1.63;0.68;;;6.40;99.90;;;;;;5412257;26;20040;-79
2024/04/19 06:11:53;;;;;;;1.40;0.77;;;6.40;99.90;;;;;;5412116;26;20039;-80
2024/04/19 06:14:19;;;;;;;0.82;0.70;;;6.40;99.90;;;;;;5379913;26;20404;-79
2024/04/19 06:16:45;;;;;;;2.30;2.08;;;6.40;99.90;;;;;;5403065;26;20657;-81
2024/04/19 06:19:11;;;;;;;0.65;0.65;;;6.40;99.90;;;;;;5382939;26;20048;-81
2024/04/19 06:21:37;;;;;;;1.23;1.13;;;6.30;99.90;;;;;;5405273;26;20035;-80
2024/04/19 06:24:04;;;;;;;0.70;0.70;;;6.30;99.90;;;;;;5401771;26;20049;-81
2024/04/19 06:26:30;;;;;;;0.40;0.40;;;6.30;99.90;;;;;;5370984;26;20052;-80
2024/04/19 06:28:56;;;;;;;0.57;0.57;;;6.30;99.90;;;;;;5377831;26;20044;-80
2024/04/19 06:31:22;;;;;;;0.70;0.70;;;6.30;99.90;;;;;;5401247;26;20044;-80
2024/04/19 06:33:48;;;;;;;0.75;0.75;;;6.20;99.90;;;;;;5386680;26;20041;-79
2024/04/19 06:36:15;;;;;;;0.47;0.47;;;6.20;99.90;;;;;;5380822;26;20040;-81
2024/04/19 06:38:41;;;;;;;0.35;0.32;;;6.20;99.90;;;;;;5382939;26;20035;-78
2024/04/19 06:41:07;;;;;;;1.23;1.08;;;6.10;99.90;;;;;;5403151;26;20031;-79
2024/04/19 06:43:33;;;;;;;0.63;0.63;;;6.20;99.90;;;;;;5400579;26;20028;-79
2024/04/19 06:46:00;;;;;;;4.05;1.58;;;6.10;99.90;;;;;;5362638;26;20036;-79
2024/04/19 06:48:26;;;;;;;0.57;0.57;;;6.10;99.90;;;;;;5396767;26;20039;-79
2024/04/19 06:50:52;;;;;;;0.70;0.70;;;6.10;99.90;;;;;;5394588;26;20036;-82
2024/04/19 06:53:18;;;;;;;4.95;0.90;;;6.10;99.90;;;;;;5372560;26;20383;-79
2024/04/19 06:55:45;;;;;;;1.48;1.35;;;6.10;1.00;;;;;;5407330;26;20047;-79
2024/04/19 06:58:11;;;;;;;2.67;1.92;;;6.10;99.90;;;;;;5404898;26;20040;-78
2024/04/19 07:00:38;;;;;;;0.57;0.57;;;6.00;1.00;;;;;;5390446;26;20038;-79
2024/04/19 07:03:05;;;;;;;0.40;0.40;;;6.00;1.00;;;;;;5364506;26;20767;-78
2024/04/19 07:05:31;;;;;;;0.68;0.63;;;6.00;1.00;;;;;;5394983;26;20041;-79
2024/04/19 07:07:57;;;;;;;2.63;1.42;;;6.00;1.00;;;;;;5396379;26;20040;-80
2024/04/19 07:10:24;;;;;;;0.20;0.20;;;6.00;1.00;;;;;;5390696;26;20086;-81
2024/04/19 07:12:51;;;;;;;0.38;0.38;;;5.90;1.00;;;;;;5391221;26;20040;-84
2024/04/19 07:15:17;;;;;;;1.05;0.98;;;6.00;1.00;;;;;;5352130;26;20055;-83
2024/04/19 07:17:44;;;;;;;0.57;0.57;;;6.00;1.00;;;;;;5364253;26;20011;-86
2024/04/19 07:20:10;;;;;;;2.97;0.95;;;6.00;1.00;;;;;;5346667;26;20040;-86
2024/04/19 07:22:36;;;;;;;0.52;0.52;;;6.00;1.00;;;;;;5364427;26;20047;-87
2024/04/19 07:25:04;;;;;;;1.25;1.13;;;6.00;1.00;;;;;;5366332;26;20080;-88
2024/04/19 07:27:30;;;;;;;0.30;0.30;;;6.00;1.00;;;;;;5378669;26;20408;-88
2024/04/19 07:29:56;;;;;;;0.93;0.88;;;6.00;1.00;;;;;;5376784;26;20035;-89
2024/04/19 07:32:23;;;;;;;0.30;0.30;;;6.00;1.00;;;;;;5376131;26;20052;-91
2024/04/19 07:34:49;;;;;;;0.73;0.73;;;6.00;1.00;;;;;;5379455;26;20040;-90
2024/04/19 07:37:15;;;;;;;0.20;0.20;;;6.00;1.00;;;;;;5378045;26;20021;-87
2024/04/19 07:39:42;;;;;;;0.68;0.68;;;6.00;1.00;;;;;;5381934;26;20032;-89
2024/04/19 07:42:09;;;;;;;3.95;0.60;;;6.00;99.90;;;;;;5368636;26;20036;-86
2024/04/19 07:44:35;;;;;;;0.55;0.55;;;6.10;99.90;;;;;;5411790;26;20036;-89
2024/04/19 07:47:01;;;;;;;0.32;0.32;;;6.10;99.90;;;;;;5348221;26;20028;-87
2024/04/19 07:49:27;;;;;;;0.20;0.20;;;6.00;99.90;;;;;;5391934;26;20036;-84
2024/04/19 07:51:54;;;;;;;0.77;0.77;;;6.10;99.90;;;;;;5362085;26;20034;-87
2024/04/19 07:54:20;;;;;;;0.10;0.10;;;6.10;99.90;;;;;;5395904;26;20039;-88
2024/04/19 07:56:47;;;;;;;0.70;0.70;;;6.10;99.90;;;;;;5401209;26;20036;-89
2024/04/19 07:59:14;;;;;;;0.60;0.60;;;6.10;99.90;;;;;;5349616;26;20044;-87
2024/04/19 08:01:40;;;;;;;1.45;1.35;;;6.10;99.90;;;;;;5361108;26;20032;-90
2024/04/19 08:04:06;;;;;;;2.67;1.13;;;6.10;99.90;;;;;;5353420;26;20024;-85
2024/04/19 08:06:33;;;;;;;0.30;0.30;;;6.20;99.90;;;;;;5389467;26;20017;-85
2024/04/19 08:08:59;;;;;;;0.68;0.57;;;6.20;99.90;;;;;;5412329;26;20008;-84
2024/04/19 08:11:25;;;;;;;0.28;0.28;;;6.20;99.90;;;;;;5402224;26;20000;-87
2024/04/19 08:13:51;;;;;;;0.63;0.50;;;6.20;99.90;;;;;;5377944;26;20035;-89
2024/04/19 08:16:17;;;;;;;0.55;0.55;;;6.20;99.90;;;;;;5378572;26;20060;-88
2024/04/19 08:18:44;;;;;;;0.40;0.40;;;6.20;99.90;;;;;;5337630;26;20040;-88
2024/04/19 08:21:10;;;;;;;0.73;0.73;;;6.20;99.90;;;;;;5384612;26;20035;-86
2024/04/19 08:23:36;;;;;;;0.43;0.43;;;6.30;99.90;;;;;;5382409;26;20031;-89
2024/04/19 08:26:02;;;;;;;3.10;1.48;;;6.20;99.90;;;;;;5373920;26;20040;-85
2024/04/19 08:28:28;;;;;;;0.10;0.10;;;6.20;99.90;;;;;;5380746;26;20028;-87
2024/04/19 08:30:55;;;;;;;1.23;1.13;;;6.20;99.90;;;;;;5393496;26;20032;-89
2024/04/19 08:33:21;;;;;;;0.30;0.30;;;6.20;99.90;;;;;;5382323;26;20036;-87
2024/04/19 08:35:58;;;;;;;0.30;0.30;;;6.30;99.90;;;;;;5363687;26;20036;-87
2024/04/19 08:38:28;;;;;;;0.32;0.32;;;6.30;99.90;;;;;;5365307;26;20036;-88
2024/04/19 08:41:07;;;;;;;0.17;0.17;;;6.20;99.90;;;;;;5375600;26;20029;-88
2024/04/19 08:43:35;;;;;;;1.45;0.43;;;6.30;99.90;;;;;;5355239;26;20032;-89
2024/04/19 08:46:03;;;;;;;0.40;0.40;;;6.30;99.90;;;;;;5419058;26;20008;-87
2024/04/19 08:48:35;;;;;;;0.57;0.57;;;6.30;99.90;;;;;;5363786;26;20008;-86
2024/04/19 08:51:03;;;;;;;0.20;0.20;;;6.30;99.90;;;;;;5384367;26;20048;-89
2024/04/19 08:53:29;;;;;;;0.57;0.57;;;6.30;99.90;;;;;;5373275;26;20036;-86
2024/04/19 08:55:57;;;;;;;0.10;0.10;;;6.30;99.90;;;;;;5379688;26;20031;-87
2024/04/19 08:58:24;;;;;;;0.20;0.20;;;6.30;99.90;;;;;;5338724;26;20027;-85
2024/04/19 09:00:50;;;;;;;0.20;0.20;;;6.30;99.90;;;;;;5343809;26;20044;-86
2024/04/19 09:03:16;;;;;;;0.38;0.38;;;6.30;99.90;;;;;;5379035;26;20036;-87
2024/04/19 09:05:42;;;;;;;0.60;0.60;;;6.30;99.90;;;;;;5364446;26;20047;-87
2024/04/19 09:08:09;;;;;;;0.25;0.25;;;6.40;99.90;;;;;;5401338;26;20032;-88
2024/04/19 09:10:35;;;;;;;0.32;0.32;;;6.30;99.90;;;;;;5398236;26;20028;-87
2024/04/19 09:13:01;;;;;;;0.45;0.45;;;6.40;99.90;;;;;;5413462;26;20004;-87
2024/04/19 09:15:28;;;;;;;0.20;0.20;;;6.40;99.90;;;;;;5399838;26;20032;-85
2024/04/19 09:17:54;;;;;;;0.30;0.30;;;6.40;99.90;;;;;;5349814;26;20032;-86
2024/04/19 09:20:23;;;;;;;0.20;0.20;;;6.40;99.90;;;;;;5368890;26;20360;-86
2024/04/19 09:22:50;;;;;;;0.20;0.20;;;6.30;99.90;;;;;;5373976;26;20036;-86
2024/04/19 09:25:17;;;;;;;0.20;0.20;;;6.40;1.00;;;;;;5377092;26;20021;-84
2024/04/19 09:27:43;;;;;;;0.75;0.75;;;6.40;99.90;;;;;;5345106;26;19996;-85
2024/04/19 09:30:13;;;;;;;0.57;0.57;;;6.30;99.90;;;;;;5388738;26;20036;-85
2024/04/19 09:32:39;;;;;;;0.75;0.73;;;6.30;1.00;;;;;;5342595;26;20031;-84
2024/04/19 09:35:05;;;;;;;1.00;0.95;;;6.30;1.00;;;;;;5350834;26;20464;-85
2024/04/19 09:37:32;;;;;;;0.93;0.90;;;6.30;1.00;;;;;;5379122;26;20453;-86
2024/04/19 09:39:59;;;;;;;1.02;1.02;;;6.30;1.00;;;;;;5364618;26;20039;-86
2024/04/19 09:42:26;;;;;;;1.08;0.85;;;6.40;1.00;;;;;;5377803;26;20043;-86
2024/04/19 09:44:52;;;;;;;0.22;0.22;;;6.30;1.00;;;;;;5401056;26;20033;-85
2024/04/19 09:47:19;;;;;;;0.47;0.47;;;6.30;1.00;;;;;;5382996;26;20047;-86
2024/04/19 09:49:46;;;;;;;0.25;0.25;;;6.40;1.00;;;;;;5349143;26;20037;-85
2024/04/19 09:52:22;;;;;;;0.38;0.38;;;6.30;1.00;;;;;;5369284;26;20370;-84
2024/04/19 09:55:09;;;;;;;0.10;0.10;;;6.30;1.00;;;;;;5378576;26;20048;-84
2024/04/19 09:57:36;;;;;;;0.65;0.65;;;6.30;1.00;;;;;;5394398;26;20036;-84
2024/04/19 10:00:03;;;;;;;0.32;0.22;;;6.30;1.00;;;;;;5388881;26;20493;-85
2024/04/19 10:02:38;;;;;;;1.30;1.25;;;6.30;1.00;;;;;;5378775;26;20008;-86
2024/04/19 10:05:06;;;;;;;0.38;0.38;;;6.30;1.00;;;;;;5382966;26;20539;-84
2024/04/19 10:07:35;;;;;;;0.40;0.40;;;6.30;1.00;;;;;;5332134;26;20047;-84
2024/04/19 10:10:02;;;;;;;5.88;1.20;;;6.30;1.00;;;;;;5396989;26;20047;-86
2024/04/19 10:12:29;;;;;;;4.38;1.00;;;6.40;1.90;;;;;;5376538;26;20040;-85
2024/04/19 10:14:56;;;;;;;0.10;0.10;;;6.40;10.20;;;;;;5396356;26;20044;-86
2024/04/19 10:17:22;;;;;;;0.45;0.45;;;6.40;5.50;;;;;;5376875;26;20028;-84
2024/04/19 10:19:48;;;;;;;0.60;0.60;;;6.40;13.50;;;;;;5363496;26;20031;-85
2024/04/19 10:22:21;;;;;;;0.10;0.10;;;6.50;49.60;;;;;;5371236;26;20031;-82
2024/04/19 10:25:02;;;;;;;0.57;0.57;;;6.40;1.00;;;;;;5346392;26;20015;-79
2024/04/19 10:27:29;;;;;;;3.33;1.70;;;6.50;1.00;;;;;;5380000;26;20466;-84
2024/04/19 10:30:08;;;;;;;1.90;1.17;;;6.60;1.00;;;;;;5368756;26;20018;-85
2024/04/19 10:32:34;;;;;;;0.10;0.10;;;6.60;1.00;;;;;;5385397;26;20284;-86
2024/04/19 10:35:01;;;;;;;0.85;0.75;;;6.60;1.00;;;;;;5356148;26;20021;-87
2024/04/19 10:37:30;;;;;;;0.45;0.45;;;6.60;1.00;;;;;;5380608;26;20404;-83
2024/04/19 10:39:56;;;;;;;0.30;0.30;;;6.50;1.00;;;;;;5383171;26;20038;-85
2024/04/19 10:42:23;;;;;;;0.68;0.52;;;6.50;1.00;;;;;;5406114;26;19999;-89
2024/04/19 10:44:51;;;;;;;0.20;0.20;;;6.50;1.00;;;;;;5395985;26;20015;-87
2024/04/19 10:47:20;;;;;;;0.63;0.63;;;6.40;1.00;;;;;;5411378;26;20072;-84
2024/04/19 10:49:47;;;;;;;0.57;0.57;;;6.40;1.00;;;;;;5401549;26;20033;-88
2024/04/19 10:52:13;;;;;;;0.10;0.10;;;6.50;1.00;;;;;;5385471;26;20025;-88
2024/04/19 10:54:39;;;;;;;0.35;0.35;;;6.50;1.00;;;;;;5393876;26;20114;-86
2024/04/19 10:57:05;;;;;;;0.90;0.40;;;6.50;1.00;;;;;;5371420;26;20036;-89
2024/04/19 10:59:32;;;;;;;0.30;0.30;;;6.40;1.00;;;;;;5409259;26;20040;-88
2024/04/19 11:02:01;;;;;;;0.20;0.20;;;6.50;1.00;;;;;;5352789;26;20040;-89
2024/04/19 11:04:28;;;;;;;0.10;0.10;;;6.50;1.00;;;;;;5372448;26;20051;-89
2024/04/19 11:06:54;;;;;;;0.17;0.17;;;6.50;1.00;;;;;;5357389;26;20032;-89
2024/04/19 11:09:20;;;;;;;0.22;0.22;;;6.50;1.00;;;;;;5393995;26;20070;-87
2024/04/19 11:11:46;;;;;;;0.52;0.52;;;6.60;1.00;;;;;;5385016;26;20488;-86
2024/04/19 11:14:13;;;;;;;0.13;0.13;;;6.60;1.00;;;;;;5379374;26;20040;-85
2024/04/19 11:16:39;;;;;;;0.20;0.20;;;6.60;1.00;;;;;;5403394;26;20666;-88
2024/04/19 11:19:05;;;;;;;0.10;0.10;;;6.60;1.00;;;;;;5388339;26;20025;-89
2024/04/19 11:21:33;;;;;;;0.43;0.43;;;6.70;1.00;;;;;;5379955;26;20044;-86
2024/04/19 11:23:59;;;;;;;2.78;0.93;;;6.60;1.00;;;;;;5397449;26;20032;-87
2024/04/19 11:26:25;;;;;;;0.63;0.63;;;6.60;1.00;;;;;;5348375;26;20379;-87
2024/04/19 11:28:51;;;;;;;0.38;0.38;;;6.70;1.00;;;;;;5350391;26;20064;-89
2024/04/19 11:31:17;;;;;;;0.17;0.17;;;6.70;1.00;;;;;;5385911;26;20035;-85
2024/04/19 11:33:44;;;;;;;1.20;0.77;;;6.70;1.00;;;;;;5395868;26;20469;-87
2024/04/19 11:36:14;;;;;;;1.02;0.88;;;6.70;1.00;;;;;;5392746;26;20032;-89
2024/04/19 11:38:41;;;;;;;0.10;0.10;;;6.70;1.00;;;;;;5379366;26;20051;-89
2024/04/19 11:41:12;;;;;;;1.65;1.17;;;6.70;1.00;;;;;;5385776;26;20031;-90
2024/04/19 11:43:38;;;;;;;0.30;0.30;;;6.80;1.00;;;;;;5361306;26;20264;-88
2024/04/19 11:46:06;;;;;;;0.47;0.47;;;6.80;1.00;;;;;;5379022;26;20388;-90
2024/04/19 11:48:33;;;;;;;0.20;0.20;;;6.80;1.00;;;;;;5383516;26;20024;-88
2024/04/19 11:50:59;;;;;;;1.10;0.40;;;6.80;1.00;;;;;;5366485;26;20041;-89
2024/04/19 11:53:26;;;;;;;0.30;0.30;;;6.90;1.00;;;;;;5316238;26;20043;-88
2024/04/19 11:55:52;;;;;;;0.30;0.30;;;6.90;1.00;;;;;;5385021;26;20039;-90
2024/04/19 11:58:19;;;;;;;1.27;0.30;;;6.90;1.00;;;;;;5379599;26;20028;-87
2024/04/19 12:00:46;;;;;;;0.20;0.20;;;6.90;1.00;;;;;;5386219;26;20043;-90
2024/04/19 12:03:12;;;;;;;0.50;0.47;;;6.90;1.00;;;;;;5328298;26;20051;-87
2024/04/19 12:05:39;;;;;;;0.17;0.17;;;7.00;1.00;;;;;;5404706;26;20067;-90
2024/04/19 12:08:06;;;;;;;0.10;0.10;;;6.90;1.00;;;;;;5380976;26;20043;-88
2024/04/19 12:10:32;;;;;;;3.45;3.10;;;7.00;1.00;;;;;;5379179;26;20378;-89
2024/04/19 12:12:58;;;;;;;0.80;0.80;;;7.10;1.00;;;;;;5370513;26;20031;-90
2024/04/19 12:15:25;;;;;;;0.68;0.68;;;7.20;1.00;;;;;;5370533;26;20035;-90
2024/04/19 12:17:51;;;;;;;0.40;0.40;;;7.20;1.00;;;;;;5404263;26;20044;-87
2024/04/19 12:20:17;;;;;;;0.30;0.30;;;7.20;99.90;;;;;;5398923;26;20033;-81
2024/04/19 12:22:44;;;;;;;5.25;2.38;;;7.20;99.90;;;;;;5321363;26;20036;-83
2024/04/19 12:25:11;;;;;;;0.50;0.50;;;7.20;99.90;;;;;;5393082;26;20384;-91
2024/04/19 12:27:37;;;;;;;0.28;0.28;;;7.20;99.90;;;;;;5376652;26;20040;-90
2024/04/19 12:30:04;;;;;;;0.20;0.20;;;7.30;99.90;;;;;;5393432;26;20015;-88
2024/04/19 12:32:30;;;;;;;1.65;1.13;;;7.20;99.90;;;;;;5384188;26;20011;-86
2024/04/19 12:34:56;;;;;;;0.20;0.20;;;7.20;99.90;;;;;;5382617;26;20024;-82
2024/04/19 12:37:23;;;;;;;0.30;0.30;;;7.20;99.90;;;;;;5390202;26;20041;-79
2024/04/19 12:39:49;;;;;;;0.20;0.20;;;7.30;1.00;;;;;;5394472;26;20032;-81
2024/04/19 12:42:15;;;;;;;0.55;0.55;;;7.30;99.90;;;;;;5322769;26;20369;-79
2024/04/19 12:44:47;;;;;;;0.40;0.38;;;7.30;1.00;;;;;;5378204;26;20044;-80
2024/04/19 12:47:17;;;;;;;0.30;0.30;;;7.30;1.00;;;;;;5332756;26;20047;-82
2024/04/19 12:49:44;;;;;;;0.63;0.63;;;7.30;1.00;;;;;;5387494;26;20032;-80
2024/04/19 12:52:10;;;;;;;0.30;0.30;;;7.30;1.00;;;;;;5384392;26;20371;-81
2024/04/19 12:54:36;;;;;;;0.50;0.50;;;7.20;1.00;;;;;;5383099;26;20048;-82
2024/04/19 12:57:03;;;;;;;0.10;0.10;;;7.20;1.00;;;;;;5374087;26;20035;-83
2024/04/19 12:59:29;;;;;;;0.43;0.43;;;7.20;1.00;;;;;;5402693;26;20039;-80
2024/04/19 13:01:55;;;;;;;0.30;0.30;;;7.30;1.00;;;;;;5388301;26;20509;-85
2024/04/19 13:04:21;;;;;;;0.20;0.20;;;7.30;1.00;;;;;;5369795;26;20352;-85